This is the latest recevied weather packets stored in our database for station/object DK9HI-WX. If no packets are shown the sender has not sent any weather packets the latest 10 day(s).
| Time | Temp. | Humidity | Pressure | Rain* | Wind** | Luminosity | Snow |
|---|---|---|---|---|---|---|---|
| 1777894995 | 22.78° C | 50% | 1013.7 hPa | - | - | - | - |
| 1777894395 | 22.22° C | 52% | 1013.7 hPa | - | - | - | - |
| 1777893795 | 22.22° C | 52% | 1013.8 hPa | - | - | - | - |
| 1777893195 | 21.67° C | 55% | 1013.9 hPa | - | - | - | - |
| 1777892595 | 22.22° C | 56% | 1013.9 hPa | - | - | - | - |
| 1777891995 | 21.67° C | 59% | 1014.1 hPa | - | - | - | - |
| 1777891395 | 21.67° C | 58% | 1014.2 hPa | - | - | - | - |
| 1777890795 | 21.11° C | 61% | 1014.2 hPa | - | - | - | - |
| 1777890195 | 20.56° C | 62% | 1014.3 hPa | - | - | - | - |
| 1777889595 | 20.56° C | 63% | 1014.3 hPa | - | - | - | - |
| 1777888995 | 20° C | 63% | 1014.3 hPa | - | - | - | - |
| 1777888395 | 20.56° C | 62% | 1014.3 hPa | - | - | - | - |
| 1777887795 | 20.56° C | 62% | 1014.2 hPa | - | - | - | - |
| 1777887194 | 20.56° C | 61% | 1014.2 hPa | - | - | - | - |
| 1777886594 | 20° C | 66% | 1014.3 hPa | - | - | - | - |
| 1777885995 | 20° C | 68% | 1014.4 hPa | - | - | - | - |
| 1777885394 | 20° C | 69% | 1014.5 hPa | - | - | - | - |
| 1777884795 | 19.44° C | 71% | 1014.5 hPa | - | - | - | - |
| 1777884194 | 18.89° C | 71% | 1014.6 hPa | - | - | - | - |
| 1777883595 | 18.89° C | 73% | 1014.5 hPa | - | - | - | - |
| 1777882994 | 18.89° C | 71% | 1014.4 hPa | - | - | - | - |
| 1777882394 | 19.44° C | 71% | 1014.3 hPa | - | - | - | - |
| 1777881794 | 19.44° C | 71% | 1014.3 hPa | - | - | - | - |
| 1777881194 | 18.89° C | 74% | 1014.3 hPa | - | - | - | - |
| 1777880594 | 18.33° C | 75% | 1014.2 hPa | - | - | - | - |
* Rain since midnight (hover to see other rain measurements)
** Current wind speed in m/s (hover to see current wind gust speed)